Terminal Aerodrome Forecast
Issued by NWS Kansas City/Pleasant Hill, MO

Home | Current Version | Previous Version | Text Only | Print | Product List | Glossary On
Versions: 1 2 3 4 5 6 7 8 9 10 11 12 13 14 15 16
048
FTUS43 KEAX 201120
TAFMCI
TAF
KMCI 201120Z 2012/2112 18014KT P6SM VCSH OVC040
     FM202000 21009KT P6SM BKN050
     FM210600 33006KT P6SM FEW200=

USA.gov is the U.S. government's official web portal to all federal, state and local government web resources and services.